Time;durP1;ratioP1;P1;durP2;ratioP2;P2;SDS_P1;SDS_P2;PMS_P1;PMS_P2;Temp;Humidity;BMP_temperature;BMP_pressure;BME280_temperature;BME280_humidity;BME280_pressure;Samples;Min_cycle;Max_cycle;Signal;HPM_P1;HPM_P2
2023/04/06 00:05:46;;;;;;;20.98;15.18;;;10.30;76.70;;;;;;10943781;32;20019;-72
2023/04/06 00:11:48;;;;;;;19.40;13.30;;;10.40;77.30;;;;;;10939597;32;20022;-71
2023/04/06 00:18:37;;;;;;;21.95;14.63;;;10.50;77.40;;;;;;10942708;32;20073;-72
2023/04/06 00:24:39;;;;;;;16.10;12.37;;;10.50;77.70;;;;;;10864469;32;20058;-72
2023/04/06 00:30:41;;;;;;;12.95;10.80;;;10.50;77.50;;;;;;10863861;32;20047;-71
2023/04/06 00:36:44;;;;;;;13.95;11.60;;;10.20;77.40;;;;;;10863439;32;20467;-72
2023/04/06 00:42:46;;;;;;;23.02;12.02;;;9.90;78.20;;;;;;10863509;32;20046;-72
2023/04/06 00:48:48;;;;;;;21.15;12.98;;;10.10;77.60;;;;;;10862783;32;20067;-72
2023/04/06 00:54:51;;;;;;;14.77;11.73;;;10.10;77.50;;;;;;10863299;32;20394;-72
2023/04/06 01:00:54;;;;;;;14.45;10.00;;;10.10;77.20;;;;;;10919969;32;20364;-72
2023/04/06 01:06:57;;;;;;;16.20;12.85;;;9.90;77.00;;;;;;10937509;32;20024;-72
2023/04/06 01:13:05;;;;;;;14.32;9.63;;;9.70;77.70;;;;;;10938714;32;20027;-72
2023/04/06 01:19:13;;;;;;;14.23;8.90;;;9.90;77.30;;;;;;10942054;32;20019;-72
2023/04/06 01:25:16;;;;;;;9.63;7.85;;;9.70;77.20;;;;;;10941969;32;20023;-72
2023/04/06 01:31:20;;;;;;;12.30;9.23;;;9.70;77.00;;;;;;10939032;32;20077;-72
2023/04/06 01:37:23;;;;;;;13.55;9.60;;;9.60;76.70;;;;;;10941097;32;20377;-72
2023/04/06 01:43:27;;;;;;;17.62;10.52;;;9.50;76.70;;;;;;10940287;32;20022;-72
2023/04/06 01:49:31;;;;;;;11.70;9.30;;;9.60;76.40;;;;;;10947315;32;20030;-72
2023/04/06 01:55:34;;;;;;;10.55;7.93;;;9.50;76.50;;;;;;10945166;32;20077;-72
2023/04/06 02:01:38;;;;;;;12.50;9.70;;;9.30;77.10;;;;;;10947411;32;20019;-72
2023/04/06 02:07:41;;;;;;;15.13;11.70;;;9.20;77.10;;;;;;10946870;32;20026;-72
2023/04/06 02:13:45;;;;;;;12.40;8.68;;;9.20;76.50;;;;;;10947941;32;20344;-72
2023/04/06 02:19:47;;;;;;;15.35;10.45;;;9.30;75.70;;;;;;10947064;32;20054;-72
2023/04/06 02:25:50;;;;;;;11.40;8.48;;;9.30;75.40;;;;;;10946206;32;20019;-72
2023/04/06 02:31:55;;;;;;;11.27;9.20;;;9.40;75.10;;;;;;10947210;32;20027;-71
2023/04/06 02:38:04;;;;;;;10.00;6.80;;;9.50;76.30;;;;;;10945881;32;20011;-72
2023/04/06 02:44:09;;;;;;;10.30;8.05;;;9.50;76.20;;;;;;10946911;32;20031;-72
2023/04/06 02:50:12;;;;;;;10.85;9.13;;;9.40;77.20;;;;;;10946917;32;20028;-72
2023/04/06 02:56:17;;;;;;;10.40;8.60;;;9.40;77.40;;;;;;10943744;32;20031;-72
2023/04/06 03:02:20;;;;;;;12.13;8.88;;;9.40;77.90;;;;;;10946189;32;20259;-72
2023/04/06 03:08:23;;;;;;;12.75;10.00;;;9.40;78.20;;;;;;10944993;32;20053;-72
2023/04/06 03:14:27;;;;;;;18.15;9.00;;;9.40;78.00;;;;;;10945726;32;20018;-72
2023/04/06 03:20:31;;;;;;;11.73;8.13;;;9.30;77.20;;;;;;10944929;32;20046;-72
2023/04/06 03:26:33;;;;;;;7.68;5.57;;;9.30;77.50;;;;;;10944016;32;20054;-72
2023/04/06 03:32:37;;;;;;;8.18;5.80;;;9.30;77.40;;;;;;10944999;32;20022;-72
2023/04/06 03:38:40;;;;;;;13.45;7.65;;;9.20;77.30;;;;;;10943934;32;20023;-72
2023/04/06 03:44:43;;;;;;;11.48;7.30;;;8.90;77.30;;;;;;10940232;32;20483;-72
2023/04/06 03:50:45;;;;;;;10.40;8.73;;;8.90;76.90;;;;;;10941649;32;20393;-72
2023/04/06 03:56:47;;;;;;;13.95;9.60;;;9.00;76.50;;;;;;10943401;32;20014;-72
2023/04/06 04:03:05;;;;;;;11.15;8.68;;;8.90;76.50;;;;;;10942585;32;20042;-72
2023/04/06 04:09:08;;;;;;;14.13;9.18;;;8.90;75.80;;;;;;10940089;32;20035;-72
2023/04/06 04:15:10;;;;;;;12.37;9.52;;;8.90;75.40;;;;;;10943028;32;20439;-72
2023/04/06 04:21:12;;;;;;;10.30;6.70;;;8.90;75.20;;;;;;10938384;32;20031;-72
2023/04/06 04:27:19;;;;;;;12.32;6.47;;;8.90;75.10;;;;;;10939300;32;20031;-72
2023/04/06 04:33:23;;;;;;;8.98;6.00;;;9.00;75.20;;;;;;10943319;32;20066;-72
2023/04/06 04:39:26;;;;;;;8.48;5.30;;;9.00;75.00;;;;;;10942337;32;20027;-72
2023/04/06 04:45:31;;;;;;;10.43;6.68;;;8.90;75.10;;;;;;10942759;32;20026;-71
2023/04/06 04:51:34;;;;;;;17.23;9.20;;;9.10;74.90;;;;;;10942228;32;20321;-72
2023/04/06 04:57:37;;;;;;;8.43;5.93;;;9.20;74.60;;;;;;10942528;32;20037;-72
2023/04/06 05:03:39;;;;;;;9.93;8.68;;;9.20;74.90;;;;;;10937346;32;20397;-72
2023/04/06 05:09:42;;;;;;;8.18;5.78;;;9.30;74.70;;;;;;10937991;32;20031;-72
2023/04/06 05:15:45;;;;;;;11.77;8.57;;;9.40;74.50;;;;;;10940937;32;20096;-72
2023/04/06 05:21:49;;;;;;;8.48;6.45;;;9.40;74.40;;;;;;10943059;32;20349;-71
2023/04/06 05:27:51;;;;;;;10.07;7.68;;;9.50;74.30;;;;;;10948977;32;20027;-72
2023/04/06 05:33:56;;;;;;;7.97;4.62;;;9.50;74.20;;;;;;10948193;32;20169;-72
2023/04/06 05:39:59;;;;;;;8.77;5.72;;;9.60;74.40;;;;;;10943250;32;20050;-72
2023/04/06 05:46:01;;;;;;;10.18;6.57;;;9.60;74.70;;;;;;10945508;32;20039;-72
2023/04/06 05:52:04;;;;;;;10.98;7.07;;;9.60;74.90;;;;;;10947433;32;20050;-72
2023/04/06 05:58:07;;;;;;;9.38;6.90;;;9.70;75.00;;;;;;10947933;32;20306;-72
2023/04/06 06:04:09;;;;;;;7.80;5.75;;;9.80;75.10;;;;;;10948146;32;20019;-72
2023/04/06 06:10:12;;;;;;;12.23;7.07;;;9.80;75.60;;;;;;10948169;32;20035;-72
2023/04/06 06:16:15;;;;;;;8.45;4.95;;;10.00;76.10;;;;;;10947927;32;20393;-72
2023/04/06 06:22:17;;;;;;;11.50;7.93;;;10.20;76.90;;;;;;10945462;32;20058;-72
2023/04/06 06:28:20;;;;;;;8.23;6.35;;;10.20;76.40;;;;;;10946249;32;20027;-72
2023/04/06 06:34:22;;;;;;;10.95;5.97;;;10.20;77.40;;;;;;10943610;32;20425;-72
2023/04/06 06:40:26;;;;;;;5.90;4.93;;;10.20;78.00;;;;;;10946003;32;20053;-72
2023/04/06 06:46:29;;;;;;;7.45;4.37;;;10.10;77.40;;;;;;10945211;32;20307;-72
2023/04/06 06:52:31;;;;;;;8.52;4.50;;;10.20;77.90;;;;;;10944753;32;20023;-72
2023/04/06 06:58:34;;;;;;;9.57;5.72;;;10.40;78.50;;;;;;10945271;32;20018;-72
2023/04/06 07:04:37;;;;;;;5.87;3.80;;;10.70;78.60;;;;;;10946174;32;20022;-71
2023/04/06 07:10:39;;;;;;;11.38;4.03;;;10.70;79.00;;;;;;10941759;32;20271;-72
2023/04/06 07:16:44;;;;;;;4.25;2.60;;;10.80;79.40;;;;;;10943206;32;20031;-72
2023/04/06 07:22:48;;;;;;;3.62;2.92;;;11.00;79.70;;;;;;10944270;32;20022;-72
2023/04/06 07:28:50;;;;;;;9.07;4.68;;;11.10;79.90;;;;;;10943404;32;20027;-72
2023/04/06 07:34:53;;;;;;;8.68;5.05;;;11.00;79.10;;;;;;10941259;32;20031;-72
2023/04/06 07:40:55;;;;;;;6.15;3.90;;;10.80;78.70;;;;;;10941669;32;20278;-72
2023/04/06 07:46:58;;;;;;;10.15;4.80;;;10.90;79.40;;;;;;10943069;32;20031;-71
2023/04/06 07:53:02;;;;;;;6.55;4.30;;;10.90;79.40;;;;;;10931006;27;20055;-72
2023/04/06 07:59:04;;;;;;;6.80;3.67;;;11.00;80.00;;;;;;10944327;32;20046;-72
2023/04/06 08:05:07;;;;;;;8.30;5.68;;;11.10;79.20;;;;;;10939312;32;20262;-72
2023/04/06 08:11:09;;;;;;;12.88;6.45;;;11.00;78.60;;;;;;10943890;32;20041;-71
2023/04/06 08:17:12;;;;;;;11.80;7.50;;;10.90;77.40;;;;;;10942516;32;20019;-72
2023/04/06 08:23:14;;;;;;;10.57;3.97;;;10.80;76.80;;;;;;10942515;32;20019;-72
2023/04/06 08:29:16;;;;;;;10.70;5.90;;;10.80;76.00;;;;;;10943797;32;20048;-72
2023/04/06 08:35:18;;;;;;;7.05;4.35;;;10.70;74.60;;;;;;10943247;32;20108;-72
2023/04/06 08:41:21;;;;;;;7.97;5.43;;;10.80;74.60;;;;;;10940323;32;20269;-72
2023/04/06 08:47:23;;;;;;;10.40;5.47;;;11.00;76.20;;;;;;10942514;32;20379;-72
2023/04/06 08:53:26;;;;;;;7.72;5.45;;;11.20;75.60;;;;;;10939663;32;20112;-72
2023/04/06 08:59:28;;;;;;;8.23;3.35;;;11.10;75.30;;;;;;10942446;32;20019;-72
2023/04/06 09:05:31;;;;;;;7.45;5.50;;;11.30;76.60;;;;;;10941025;32;20397;-72
2023/04/06 09:11:44;;;;;;;5.45;3.17;;;11.40;75.90;;;;;;10942376;32;20057;-72
2023/04/06 09:17:46;;;;;;;5.43;2.60;;;11.30;74.30;;;;;;10941606;32;20014;-72
2023/04/06 09:24:01;;;;;;;4.32;2.67;;;11.50;75.70;;;;;;10939144;32;20022;-73
2023/04/06 09:30:09;;;;;;;4.68;2.47;;;11.50;73.10;;;;;;10942524;32;20019;-72
2023/04/06 09:36:13;;;;;;;4.80;2.45;;;11.70;75.10;;;;;;10941587;32;20392;-72
2023/04/06 09:42:25;;;;;;;7.12;3.22;;;11.80;76.00;;;;;;10941039;32;20018;-72
2023/04/06 09:48:30;;;;;;;8.30;4.37;;;11.90;76.00;;;;;;10941004;32;20321;-72
2023/04/06 09:54:34;;;;;;;5.10;3.20;;;12.00;76.80;;;;;;10940212;32;20042;-73
2023/04/06 10:00:51;;;;;;;9.00;3.60;;;12.10;74.70;;;;;;10941096;32;20015;-73
2023/04/06 10:06:54;;;;;;;9.68;4.45;;;12.20;72.50;;;;;;10943621;32;20018;-72
2023/04/06 10:12:57;;;;;;;7.05;4.00;;;12.20;73.70;;;;;;10947888;32;20328;-73
2023/04/06 10:19:10;;;;;;;3.97;2.62;;;12.20;73.60;;;;;;10947218;32;20023;-73
2023/04/06 10:25:12;;;;;;;10.30;6.87;;;12.50;75.00;;;;;;10944909;32;20057;-73
2023/04/06 10:31:14;;;;;;;6.68;4.18;;;12.80;75.20;;;;;;10947252;32;20022;-72
2023/04/06 10:37:18;;;;;;;6.70;4.55;;;12.80;72.70;;;;;;10945743;32;20015;-73
2023/04/06 10:43:22;;;;;;;7.82;4.18;;;12.80;69.40;;;;;;10946632;32;20046;-72
2023/04/06 10:49:27;;;;;;;6.18;3.90;;;13.00;71.10;;;;;;10946726;32;20455;-72
2023/04/06 10:55:30;;;;;;;6.87;3.92;;;13.20;68.70;;;;;;10947188;32;20019;-72
2023/04/06 11:01:33;;;;;;;7.68;3.25;;;13.30;66.40;;;;;;10945818;32;20041;-72
2023/04/06 11:07:35;;;;;;;4.05;3.12;;;13.50;65.60;;;;;;10944586;32;20073;-74
2023/04/06 11:13:42;;;;;;;12.40;7.90;;;13.80;65.80;;;;;;10945437;32;20412;-74
2023/04/06 11:19:45;;;;;;;8.60;5.85;;;14.10;64.60;;;;;;10945583;32;20420;-72
2023/04/06 11:25:51;;;;;;;9.40;4.95;;;14.10;61.40;;;;;;10942558;32;20057;-72
2023/04/06 11:31:59;;;;;;;7.47;3.97;;;14.20;61.10;;;;;;10942749;32;20031;-72
2023/04/06 11:38:04;;;;;;;10.23;5.25;;;14.30;60.20;;;;;;10941190;32;20046;-72
2023/04/06 11:44:06;;;;;;;8.80;7.05;;;14.80;60.40;;;;;;10944763;32;20049;-72
2023/04/06 11:50:10;;;;;;;13.35;8.55;;;15.20;59.70;;;;;;10943386;32;20049;-73
2023/04/06 11:56:23;;;;;;;14.75;8.27;;;15.40;58.60;;;;;;10940255;32;20031;-72
2023/04/06 12:02:26;;;;;;;7.05;5.97;;;15.20;57.00;;;;;;10944071;32;20381;-73
2023/04/06 12:08:28;;;;;;;20.77;6.65;;;15.30;58.90;;;;;;10940862;32;20022;-72
2023/04/06 12:14:30;;;;;;;13.48;6.90;;;15.50;60.50;;;;;;10943846;32;20010;-73
2023/04/06 12:20:33;;;;;;;4.70;3.60;;;15.70;57.10;;;;;;10942680;32;20081;-74
2023/04/06 12:26:36;;;;;;;10.82;8.98;;;15.70;57.70;;;;;;10943182;32;20055;-73
2023/04/06 12:32:39;;;;;;;8.32;6.53;;;15.70;55.60;;;;;;10942789;32;20328;-72
2023/04/06 12:38:44;;;;;;;9.98;8.07;;;15.70;54.30;;;;;;10941833;32;20014;-72
2023/04/06 12:44:47;;;;;;;8.50;6.22;;;15.80;55.80;;;;;;10942769;32;20404;-73
2023/04/06 12:51:00;;;;;;;8.82;4.85;;;16.10;56.10;;;;;;10941835;32;20042;-72
2023/04/06 12:57:02;;;;;;;12.45;9.70;;;16.20;55.90;;;;;;10942541;32;20423;-72
2023/04/06 13:03:05;;;;;;;9.25;7.70;;;16.30;57.20;;;;;;10942488;32;20069;-72
2023/04/06 13:09:07;;;;;;;10.63;6.62;;;16.20;55.60;;;;;;10939370;32;20404;-73
2023/04/06 13:15:10;;;;;;;20.30;8.18;;;16.20;55.60;;;;;;10941169;32;20314;-74
2023/04/06 13:21:16;;;;;;;15.40;11.88;;;16.30;53.00;;;;;;10942074;32;20030;-74
2023/04/06 13:27:18;;;;;;;9.07;5.53;;;16.20;56.10;;;;;;10940310;32;20014;-74
2023/04/06 13:33:20;;;;;;;9.13;5.80;;;16.40;55.80;;;;;;10941640;32;20345;-74
2023/04/06 13:39:23;;;;;;;11.60;6.78;;;16.60;53.50;;;;;;10941621;32;20046;-74
2023/04/06 13:45:25;;;;;;;11.40;7.72;;;16.60;52.30;;;;;;10947828;32;20054;-73
2023/04/06 13:51:27;;;;;;;11.75;7.32;;;16.70;52.40;;;;;;10945173;32;20041;-73
2023/04/06 13:57:29;;;;;;;8.43;4.80;;;16.60;50.60;;;;;;10945645;32;20034;-74
2023/04/06 14:03:32;;;;;;;6.85;4.53;;;16.70;50.20;;;;;;10947888;32;20042;-74
2023/04/06 14:09:34;;;;;;;16.37;8.65;;;16.80;51.10;;;;;;10948282;32;20023;-74
2023/04/06 14:15:37;;;;;;;12.50;8.20;;;17.20;50.70;;;;;;10944666;32;20045;-74
2023/04/06 14:21:40;;;;;;;8.07;6.12;;;17.30;51.30;;;;;;10947260;32;20018;-75
2023/04/06 14:27:43;;;;;;;8.98;4.97;;;17.30;51.90;;;;;;10945652;32;20037;-74
2023/04/06 14:33:45;;;;;;;9.95;7.05;;;17.40;50.90;;;;;;10947154;32;20073;-74
2023/04/06 14:39:48;;;;;;;8.93;4.97;;;17.60;50.40;;;;;;10946948;32;20405;-74
2023/04/06 14:45:50;;;;;;;8.15;5.18;;;17.70;49.30;;;;;;10944198;32;20050;-74
2023/04/06 14:51:52;;;;;;;10.98;8.80;;;17.90;49.20;;;;;;10943135;32;20385;-75
2023/04/06 14:57:55;;;;;;;11.90;8.57;;;18.20;52.60;;;;;;10946378;32;20018;-75
2023/04/06 15:03:57;;;;;;;12.95;5.62;;;18.00;55.80;;;;;;10944601;32;20182;-74
2023/04/06 15:09:59;;;;;;;12.40;8.52;;;18.10;54.90;;;;;;10945361;32;20023;-75
2023/04/06 15:16:02;;;;;;;13.40;9.98;;;18.20;55.00;;;;;;10942640;32;20011;-75
2023/04/06 15:22:04;;;;;;;11.12;8.07;;;18.20;59.90;;;;;;10943495;32;20057;-75
2023/04/06 15:28:06;;;;;;;13.60;8.18;;;18.20;59.80;;;;;;10942803;32;20022;-75
2023/04/06 15:34:08;;;;;;;12.02;8.30;;;18.20;64.20;;;;;;10943546;32;20034;-74
2023/04/06 15:40:13;;;;;;;15.48;8.98;;;18.10;66.70;;;;;;10938772;32;20023;-75
2023/04/06 15:46:15;;;;;;;14.98;9.43;;;18.00;66.40;;;;;;10940920;32;20058;-75
2023/04/06 15:52:17;;;;;;;12.55;8.63;;;18.00;66.00;;;;;;10726629;27;7123142;-75
2023/04/06 15:58:19;;;;;;;9.57;6.32;;;18.20;65.20;;;;;;10941801;32;20027;-75
2023/04/06 16:04:22;;;;;;;14.50;10.52;;;18.70;63.10;;;;;;10940097;32;20019;-75
2023/04/06 16:10:24;;;;;;;10.38;7.07;;;18.90;64.20;;;;;;10941283;32;20041;-75
2023/04/06 16:16:26;;;;;;;10.48;5.75;;;18.50;64.80;;;;;;10942578;32;20042;-75
2023/04/06 16:22:28;;;;;;;14.25;8.85;;;18.50;63.50;;;;;;10941484;32;20041;-75
2023/04/06 16:28:31;;;;;;;9.32;6.00;;;18.30;64.70;;;;;;10940942;32;20045;-75
2023/04/06 16:34:34;;;;;;;6.03;3.55;;;18.30;65.00;;;;;;10941293;32;20022;-75
2023/04/06 16:40:36;;;;;;;6.80;4.65;;;18.70;65.00;;;;;;10928905;32;20042;-75
2023/04/06 16:46:38;;;;;;;12.80;4.60;;;18.20;65.30;;;;;;10940462;32;20023;-75
2023/04/06 16:52:41;;;;;;;6.10;3.53;;;17.40;65.70;;;;;;10941430;32;20015;-74
2023/04/06 16:58:44;;;;;;;5.53;3.80;;;16.70;66.30;;;;;;10942080;32;20354;-75
2023/04/06 17:04:46;;;;;;;7.95;4.68;;;16.30;67.30;;;;;;10929052;32;20045;-75
2023/04/06 17:10:48;;;;;;;6.12;4.78;;;15.90;68.30;;;;;;10937262;32;20049;-72
2023/04/06 17:16:50;;;;;;;8.52;5.03;;;15.80;68.00;;;;;;10946359;32;20041;-71
2023/04/06 17:22:53;;;;;;;8.13;4.20;;;15.60;68.00;;;;;;10949352;32;20041;-71
2023/04/06 17:28:55;;;;;;;5.68;2.97;;;15.60;69.10;;;;;;10948896;32;20018;-71
2023/04/06 17:34:57;;;;;;;8.68;5.22;;;15.70;70.00;;;;;;10949175;32;20037;-71
2023/04/06 17:41:00;;;;;;;8.52;4.95;;;15.90;70.80;;;;;;10946516;32;20019;-72
2023/04/06 17:47:02;;;;;;;6.45;3.97;;;15.90;71.60;;;;;;10947323;32;20026;-73
2023/04/06 17:53:05;;;;;;;9.90;6.10;;;15.80;72.30;;;;;;10931428;32;20026;-75
2023/04/06 17:59:10;;;;;;;9.07;5.90;;;15.80;72.40;;;;;;10948502;32;20038;-75
2023/04/06 18:05:12;;;;;;;9.68;5.28;;;15.90;73.20;;;;;;10947422;32;20019;-75
2023/04/06 18:11:17;;;;;;;9.13;5.87;;;15.80;74.50;;;;;;10947465;32;20042;-75
2023/04/06 18:17:19;;;;;;;11.35;7.05;;;16.00;75.10;;;;;;10948272;32;20403;-75
2023/04/06 18:23:21;;;;;;;7.37;4.82;;;16.00;74.90;;;;;;10947648;32;20019;-75
2023/04/06 18:29:24;;;;;;;6.10;4.45;;;15.80;74.80;;;;;;10914278;32;20046;-75
2023/04/06 18:35:26;;;;;;;7.68;4.95;;;15.60;75.00;;;;;;10906854;32;20440;-75
2023/04/06 18:41:28;;;;;;;6.47;4.68;;;15.40;75.30;;;;;;10890970;32;20019;-75
2023/04/06 18:47:30;;;;;;;7.95;5.28;;;15.30;75.50;;;;;;10903667;32;20027;-75
2023/04/06 18:53:33;;;;;;;13.20;9.90;;;15.30;75.60;;;;;;10903267;32;20015;-75
2023/04/06 18:59:36;;;;;;;9.60;6.72;;;15.30;75.00;;;;;;10888931;32;20382;-75
2023/04/06 19:05:41;;;;;;;6.43;4.70;;;15.40;74.40;;;;;;10902391;32;20053;-75
2023/04/06 19:11:44;;;;;;;6.40;5.18;;;15.30;74.80;;;;;;10902888;32;20345;-75
2023/04/06 19:17:46;;;;;;;6.47;4.93;;;15.20;75.00;;;;;;10908690;32;20459;-75
2023/04/06 19:23:51;;;;;;;6.75;5.20;;;15.10;75.00;;;;;;10945575;32;20049;-75
2023/04/06 19:29:53;;;;;;;7.43;5.50;;;14.80;75.20;;;;;;10944868;32;20023;-75
2023/04/06 19:35:55;;;;;;;8.73;5.95;;;14.80;75.30;;;;;;10943950;32;20019;-75
2023/04/06 19:41:58;;;;;;;8.00;4.70;;;14.60;75.50;;;;;;10944038;32;20038;-75
2023/04/06 19:48:00;;;;;;;8.55;4.85;;;14.50;75.60;;;;;;10930343;32;20022;-75
2023/04/06 19:54:04;;;;;;;8.27;6.00;;;14.40;75.70;;;;;;10943103;32;20329;-75
2023/04/06 20:00:08;;;;;;;10.00;6.55;;;14.50;75.60;;;;;;10929668;32;20089;-75
2023/04/06 20:06:11;;;;;;;8.50;6.15;;;14.60;75.40;;;;;;10942495;32;20330;-75
2023/04/06 20:12:13;;;;;;;14.23;9.35;;;14.50;75.40;;;;;;10941417;32;20031;-75
2023/04/06 20:18:15;;;;;;;9.32;6.90;;;14.50;75.60;;;;;;10943147;32;20023;-75
2023/04/06 20:24:17;;;;;;;10.23;7.60;;;14.40;75.50;;;;;;10941647;32;20046;-75
2023/04/06 20:30:20;;;;;;;10.02;7.93;;;14.20;75.80;;;;;;10928283;32;20459;-75
2023/04/06 20:36:22;;;;;;;10.63;6.47;;;14.00;75.80;;;;;;10925640;32;20038;-75
2023/04/06 20:42:24;;;;;;;9.13;6.72;;;14.00;76.10;;;;;;10942699;32;20101;-75
2023/04/06 20:48:28;;;;;;;11.80;8.40;;;13.90;75.80;;;;;;10942766;32;20077;-75
2023/04/06 20:54:30;;;;;;;12.15;9.88;;;13.80;75.80;;;;;;10940614;32;20388;-75
2023/04/06 21:00:32;;;;;;;10.70;8.23;;;13.90;75.50;;;;;;10942829;32;20324;-75
2023/04/06 21:06:35;;;;;;;9.85;8.40;;;13.80;75.50;;;;;;10942747;32;20026;-75
2023/04/06 21:12:37;;;;;;;16.42;12.27;;;13.80;75.90;;;;;;10927934;32;20341;-75
2023/04/06 21:18:40;;;;;;;15.30;12.75;;;13.80;76.00;;;;;;10942087;32;20046;-75
2023/04/06 21:24:42;;;;;;;8.95;7.90;;;13.80;76.60;;;;;;10940824;32;20053;-75
2023/04/06 21:30:44;;;;;;;13.30;11.12;;;13.80;77.20;;;;;;10941218;32;20026;-75
2023/04/06 21:36:46;;;;;;;15.75;12.50;;;13.50;77.50;;;;;;10927498;32;20066;-75
2023/04/06 21:42:48;;;;;;;11.30;8.95;;;13.50;78.30;;;;;;10926817;32;20043;-75
2023/04/06 21:48:50;;;;;;;14.73;10.93;;;13.20;78.50;;;;;;10941459;32;20026;-75
2023/04/06 21:54:52;;;;;;;13.50;8.93;;;13.20;78.80;;;;;;10925756;32;20475;-75
2023/04/06 22:00:54;;;;;;;12.57;10.65;;;13.30;78.40;;;;;;10926372;32;20035;-75
2023/04/06 22:06:57;;;;;;;9.98;8.43;;;13.20;78.70;;;;;;10934361;32;20080;-75
2023/04/06 22:12:59;;;;;;;17.77;12.63;;;13.20;78.10;;;;;;10948299;32;20011;-75
2023/04/06 22:19:01;;;;;;;13.45;10.63;;;13.20;77.70;;;;;;10932929;32;20393;-75
2023/04/06 22:25:03;;;;;;;13.10;9.20;;;13.20;77.20;;;;;;10947242;32;20046;-75
2023/04/06 22:31:05;;;;;;;14.75;10.68;;;13.00;77.30;;;;;;10946526;32;20027;-76
2023/04/06 22:37:07;;;;;;;13.20;8.77;;;12.80;77.40;;;;;;10947426;32;20026;-75
2023/04/06 22:43:09;;;;;;;11.23;8.35;;;12.90;77.20;;;;;;10946217;32;20031;-75
2023/04/06 22:49:12;;;;;;;14.48;12.00;;;12.80;77.00;;;;;;10932240;32;20287;-75
2023/04/06 22:55:13;;;;;;;22.92;13.13;;;12.70;76.90;;;;;;10944073;32;20027;-75
2023/04/06 23:01:16;;;;;;;9.35;8.10;;;12.80;77.00;;;;;;10931823;32;20049;-75
2023/04/06 23:07:18;;;;;;;11.57;8.38;;;12.70;76.60;;;;;;10946370;32;20027;-71
2023/04/06 23:13:20;;;;;;;13.45;10.95;;;12.60;76.70;;;;;;10929681;32;20022;-71
2023/04/06 23:19:22;;;;;;;13.85;9.60;;;12.40;76.60;;;;;;10944878;32;20019;-71
2023/04/06 23:25:24;;;;;;;14.30;12.80;;;12.30;76.40;;;;;;10945649;32;20336;-71
2023/04/06 23:31:26;;;;;;;8.65;7.55;;;12.20;76.50;;;;;;10946129;32;20019;-71
2023/04/06 23:37:28;;;;;;;10.40;7.75;;;12.20;76.50;;;;;;10945414;32;20007;-71
2023/04/06 23:43:30;;;;;;;14.63;9.35;;;12.20;76.50;;;;;;10944535;32;20014;-71
2023/04/06 23:49:33;;;;;;;11.00;8.40;;;12.20;76.40;;;;;;10948893;27;20058;-71
2023/04/06 23:55:35;;;;;;;13.35;10.30;;;12.30;76.50;;;;;;10942281;32;20045;-72
